sensor_id;sensor_type;location;lat;lon;timestamp;P1;P2;P0
62631;PMS5003;48703;51.248;-0.546;2022-09-30T00:02:26;16.93;16.01;
62631;PMS5003;48703;51.248;-0.546;2022-09-30T00:05:27;17.87;17.09;
62631;PMS5003;48703;51.248;-0.546;2022-09-30T00:08:28;17.57;16.90;
62631;PMS5003;48703;51.248;-0.546;2022-09-30T00:11:30;19.30;18.03;
62631;PMS5003;48703;51.248;-0.546;2022-09-30T00:14:31;21.30;19.17;
62631;PMS5003;48703;51.248;-0.546;2022-09-30T00:17:33;17.72;16.14;
62631;PMS5003;48703;51.248;-0.546;2022-09-30T00:20:34;17.96;16.71;
62631;PMS5003;48703;51.248;-0.546;2022-09-30T00:23:36;21.03;19.60;
62631;PMS5003;48703;51.248;-0.546;2022-09-30T00:26:37;17.10;17.00;
62631;PMS5003;48703;51.248;-0.546;2022-09-30T00:29:38;20.09;17.94;
62631;PMS5003;48703;51.248;-0.546;2022-09-30T00:32:40;18.13;16.97;
62631;PMS5003;48703;51.248;-0.546;2022-09-30T00:35:41;19.77;18.99;
62631;PMS5003;48703;51.248;-0.546;2022-09-30T00:38:43;18.86;18.13;
62631;PMS5003;48703;51.248;-0.546;2022-09-30T00:41:44;20.09;17.52;
62631;PMS5003;48703;51.248;-0.546;2022-09-30T00:44:47;20.84;18.94;
62631;PMS5003;48703;51.248;-0.546;2022-09-30T00:47:49;18.91;17.88;
62631;PMS5003;48703;51.248;-0.546;2022-09-30T00:50:49;21.14;18.57;
62631;PMS5003;48703;51.248;-0.546;2022-09-30T00:53:51;18.68;17.07;
62631;PMS5003;48703;51.248;-0.546;2022-09-30T00:56:53;17.66;17.66;
62631;PMS5003;48703;51.248;-0.546;2022-09-30T00:59:54;17.46;16.50;
62631;PMS5003;48703;51.248;-0.546;2022-09-30T01:02:55;17.67;15.91;
62631;PMS5003;48703;51.248;-0.546;2022-09-30T01:05:58;18.31;17.23;
62631;PMS5003;48703;51.248;-0.546;2022-09-30T01:08:59;20.00;18.86;
62631;PMS5003;48703;51.248;-0.546;2022-09-30T01:12:00;20.28;18.81;
62631;PMS5003;48703;51.248;-0.546;2022-09-30T01:15:01;20.80;19.06;
62631;PMS5003;48703;51.248;-0.546;2022-09-30T01:18:04;19.68;18.20;
62631;PMS5003;48703;51.248;-0.546;2022-09-30T01:21:25;19.78;18.29;
62631;PMS5003;48703;51.248;-0.546;2022-09-30T01:24:11;20.19;18.83;
62631;PMS5003;48703;51.248;-0.546;2022-09-30T01:28:23;18.69;17.66;
62631;PMS5003;48703;51.248;-0.546;2022-09-30T01:31:16;19.90;18.77;
62631;PMS5003;48703;51.248;-0.546;2022-09-30T01:34:13;20.78;19.41;
62631;PMS5003;48703;51.248;-0.546;2022-09-30T01:37:17;19.41;17.29;
62631;PMS5003;48703;51.248;-0.546;2022-09-30T01:40:17;19.66;18.33;
62631;PMS5003;48703;51.248;-0.546;2022-09-30T01:43:21;20.30;18.84;
62631;PMS5003;48703;51.248;-0.546;2022-09-30T01:46:21;17.76;16.89;
62631;PMS5003;48703;51.248;-0.546;2022-09-30T01:49:22;19.39;18.14;
62631;PMS5003;48703;51.248;-0.546;2022-09-30T01:52:23;19.48;18.36;
62631;PMS5003;48703;51.248;-0.546;2022-09-30T01:55:25;19.51;18.10;
62631;PMS5003;48703;51.248;-0.546;2022-09-30T01:58:28;20.17;19.29;
62631;PMS5003;48703;51.248;-0.546;2022-09-30T02:01:27;16.60;16.29;
62631;PMS5003;48703;51.248;-0.546;2022-09-30T02:04:37;17.14;16.90;
62631;PMS5003;48703;51.248;-0.546;2022-09-30T02:07:31;16.53;16.21;
62631;PMS5003;48703;51.248;-0.546;2022-09-30T02:10:32;17.69;16.90;
62631;PMS5003;48703;51.248;-0.546;2022-09-30T02:13:35;17.69;17.09;
62631;PMS5003;48703;51.248;-0.546;2022-09-30T02:16:36;15.84;15.27;
62631;PMS5003;48703;51.248;-0.546;2022-09-30T02:19:37;16.97;16.91;
62631;PMS5003;48703;51.248;-0.546;2022-09-30T02:22:40;18.94;17.42;
62631;PMS5003;48703;51.248;-0.546;2022-09-30T02:25:38;19.09;15.54;
62631;PMS5003;48703;51.248;-0.546;2022-09-30T02:28:40;16.12;16.12;
62631;PMS5003;48703;51.248;-0.546;2022-09-30T02:31:41;17.50;16.09;
62631;PMS5003;48703;51.248;-0.546;2022-09-30T02:34:42;15.59;14.99;
62631;PMS5003;48703;51.248;-0.546;2022-09-30T02:37:44;18.01;16.57;
62631;PMS5003;48703;51.248;-0.546;2022-09-30T02:40:45;20.07;17.91;
62631;PMS5003;48703;51.248;-0.546;2022-09-30T02:43:46;18.90;17.46;
62631;PMS5003;48703;51.248;-0.546;2022-09-30T02:46:52;16.93;16.57;
62631;PMS5003;48703;51.248;-0.546;2022-09-30T02:49:50;18.07;15.44;
62631;PMS5003;48703;51.248;-0.546;2022-09-30T02:52:55;19.04;17.60;
62631;PMS5003;48703;51.248;-0.546;2022-09-30T02:55:59;16.87;15.93;
62631;PMS5003;48703;51.248;-0.546;2022-09-30T02:58:54;19.66;17.29;
62631;PMS5003;48703;51.248;-0.546;2022-09-30T03:01:55;14.94;13.86;
62631;PMS5003;48703;51.248;-0.546;2022-09-30T03:04:57;17.84;16.76;
62631;PMS5003;48703;51.248;-0.546;2022-09-30T03:07:59;17.33;16.33;
62631;PMS5003;48703;51.248;-0.546;2022-09-30T03:11:00;15.89;15.40;
62631;PMS5003;48703;51.248;-0.546;2022-09-30T03:14:23;19.09;18.32;
62631;PMS5003;48703;51.248;-0.546;2022-09-30T03:17:08;20.04;17.58;
62631;PMS5003;48703;51.248;-0.546;2022-09-30T03:20:08;17.23;16.20;
62631;PMS5003;48703;51.248;-0.546;2022-09-30T03:23:11;18.54;16.77;
62631;PMS5003;48703;51.248;-0.546;2022-09-30T03:26:12;18.56;17.29;
62631;PMS5003;48703;51.248;-0.546;2022-09-30T03:29:12;18.21;15.81;
62631;PMS5003;48703;51.248;-0.546;2022-09-30T03:32:14;20.84;18.56;
62631;PMS5003;48703;51.248;-0.546;2022-09-30T03:35:15;19.51;17.53;
62631;PMS5003;48703;51.248;-0.546;2022-09-30T03:38:18;20.61;19.42;
62631;PMS5003;48703;51.248;-0.546;2022-09-30T03:41:18;21.10;18.22;
62631;PMS5003;48703;51.248;-0.546;2022-09-30T03:44:18;17.17;16.69;
62631;PMS5003;48703;51.248;-0.546;2022-09-30T03:47:20;19.79;18.20;
62631;PMS5003;48703;51.248;-0.546;2022-09-30T03:50:21;21.00;19.67;
62631;PMS5003;48703;51.248;-0.546;2022-09-30T03:53:22;19.39;18.20;
62631;PMS5003;48703;51.248;-0.546;2022-09-30T03:56:24;20.99;18.40;
62631;PMS5003;48703;51.248;-0.546;2022-09-30T03:59:26;19.49;19.09;
62631;PMS5003;48703;51.248;-0.546;2022-09-30T04:02:26;22.70;21.04;
62631;PMS5003;48703;51.248;-0.546;2022-09-30T04:05:28;19.84;18.24;
62631;PMS5003;48703;51.248;-0.546;2022-09-30T04:08:29;20.53;19.81;
62631;PMS5003;48703;51.248;-0.546;2022-09-30T04:11:31;19.74;18.74;
62631;PMS5003;48703;51.248;-0.546;2022-09-30T04:14:33;20.68;20.07;
62631;PMS5003;48703;51.248;-0.546;2022-09-30T04:17:34;20.90;20.39;
62631;PMS5003;48703;51.248;-0.546;2022-09-30T04:20:36;20.36;20.11;
62631;PMS5003;48703;51.248;-0.546;2022-09-30T04:23:39;20.30;18.89;
62631;PMS5003;48703;51.248;-0.546;2022-09-30T04:26:40;23.01;21.24;
62631;PMS5003;48703;51.248;-0.546;2022-09-30T04:29:41;21.19;19.19;
62631;PMS5003;48703;51.248;-0.546;2022-09-30T04:32:43;22.94;21.83;
62631;PMS5003;48703;51.248;-0.546;2022-09-30T04:35:44;19.48;18.04;
62631;PMS5003;48703;51.248;-0.546;2022-09-30T04:38:45;22.43;21.35;
62631;PMS5003;48703;51.248;-0.546;2022-09-30T04:41:47;21.07;20.06;
62631;PMS5003;48703;51.248;-0.546;2022-09-30T04:44:49;20.30;19.73;
62631;PMS5003;48703;51.248;-0.546;2022-09-30T04:47:51;25.17;22.83;
62631;PMS5003;48703;51.248;-0.546;2022-09-30T04:50:53;20.66;19.74;
62631;PMS5003;48703;51.248;-0.546;2022-09-30T04:53:54;25.03;23.43;
62631;PMS5003;48703;51.248;-0.546;2022-09-30T04:56:56;22.11;20.81;
62631;PMS5003;48703;51.248;-0.546;2022-09-30T04:59:57;21.54;20.26;
62631;PMS5003;48703;51.248;-0.546;2022-09-30T05:02:58;22.22;21.36;
62631;PMS5003;48703;51.248;-0.546;2022-09-30T05:06:00;22.88;21.35;
62631;PMS5003;48703;51.248;-0.546;2022-09-30T05:09:01;24.48;22.19;
62631;PMS5003;48703;51.248;-0.546;2022-09-30T05:12:03;21.56;19.94;
62631;PMS5003;48703;51.248;-0.546;2022-09-30T05:15:04;22.17;21.00;
62631;PMS5003;48703;51.248;-0.546;2022-09-30T05:18:05;23.51;21.01;
62631;PMS5003;48703;51.248;-0.546;2022-09-30T05:21:08;23.23;21.17;
62631;PMS5003;48703;51.248;-0.546;2022-09-30T05:24:09;22.74;19.94;
62631;PMS5003;48703;51.248;-0.546;2022-09-30T05:27:10;25.36;22.67;
62631;PMS5003;48703;51.248;-0.546;2022-09-30T05:30:12;26.77;23.52;
62631;PMS5003;48703;51.248;-0.546;2022-09-30T05:33:14;25.14;22.33;
62631;PMS5003;48703;51.248;-0.546;2022-09-30T05:36:15;24.23;21.59;
62631;PMS5003;48703;51.248;-0.546;2022-09-30T05:39:16;24.42;23.42;
62631;PMS5003;48703;51.248;-0.546;2022-09-30T05:42:18;25.03;23.23;
62631;PMS5003;48703;51.248;-0.546;2022-09-30T05:45:20;23.16;21.14;
62631;PMS5003;48703;51.248;-0.546;2022-09-30T05:48:23;23.27;20.83;
62631;PMS5003;48703;51.248;-0.546;2022-09-30T05:51:23;27.77;25.94;
62631;PMS5003;48703;51.248;-0.546;2022-09-30T05:54:24;25.81;24.01;
62631;PMS5003;48703;51.248;-0.546;2022-09-30T05:57:26;27.03;22.87;
62631;PMS5003;48703;51.248;-0.546;2022-09-30T06:00:28;22.11;21.41;
62631;PMS5003;48703;51.248;-0.546;2022-09-30T06:03:29;26.51;22.24;
62631;PMS5003;48703;51.248;-0.546;2022-09-30T06:06:30;24.59;22.49;
62631;PMS5003;48703;51.248;-0.546;2022-09-30T06:09:32;27.28;24.80;
62631;PMS5003;48703;51.248;-0.546;2022-09-30T06:12:33;28.37;26.30;
62631;PMS5003;48703;51.248;-0.546;2022-09-30T06:15:35;28.77;26.30;
62631;PMS5003;48703;51.248;-0.546;2022-09-30T06:18:36;29.64;26.16;
62631;PMS5003;48703;51.248;-0.546;2022-09-30T06:21:37;28.20;26.81;
62631;PMS5003;48703;51.248;-0.546;2022-09-30T06:24:39;30.14;27.35;
62631;PMS5003;48703;51.248;-0.546;2022-09-30T06:27:42;31.71;29.04;
62631;PMS5003;48703;51.248;-0.546;2022-09-30T06:30:40;26.29;23.96;
62631;PMS5003;48703;51.248;-0.546;2022-09-30T06:33:41;27.83;24.54;
62631;PMS5003;48703;51.248;-0.546;2022-09-30T06:36:42;28.88;25.75;
62631;PMS5003;48703;51.248;-0.546;2022-09-30T06:39:44;23.96;21.77;
62631;PMS5003;48703;51.248;-0.546;2022-09-30T06:42:44;27.29;25.67;
62631;PMS5003;48703;51.248;-0.546;2022-09-30T06:45:46;28.03;26.96;
62631;PMS5003;48703;51.248;-0.546;2022-09-30T06:48:47;28.10;25.46;
62631;PMS5003;48703;51.248;-0.546;2022-09-30T06:51:48;31.90;28.61;
62631;PMS5003;48703;51.248;-0.546;2022-09-30T06:54:49;34.97;31.74;
62631;PMS5003;48703;51.248;-0.546;2022-09-30T06:57:50;30.06;27.11;
62631;PMS5003;48703;51.248;-0.546;2022-09-30T07:00:59;34.62;30.93;
62631;PMS5003;48703;51.248;-0.546;2022-09-30T07:03:53;35.68;32.00;
62631;PMS5003;48703;51.248;-0.546;2022-09-30T07:06:53;35.41;32.81;
62631;PMS5003;48703;51.248;-0.546;2022-09-30T07:09:55;36.97;32.13;
62631;PMS5003;48703;51.248;-0.546;2022-09-30T07:12:57;34.06;30.90;
62631;PMS5003;48703;51.248;-0.546;2022-09-30T07:15:57;36.49;31.97;
62631;PMS5003;48703;51.248;-0.546;2022-09-30T07:18:59;34.75;32.70;
62631;PMS5003;48703;51.248;-0.546;2022-09-30T07:22:01;34.03;30.54;
62631;PMS5003;48703;51.248;-0.546;2022-09-30T07:25:02;35.87;33.38;
62631;PMS5003;48703;51.248;-0.546;2022-09-30T07:28:03;33.07;30.27;
62631;PMS5003;48703;51.248;-0.546;2022-09-30T07:31:06;38.62;35.04;
62631;PMS5003;48703;51.248;-0.546;2022-09-30T07:34:06;38.21;35.46;
62631;PMS5003;48703;51.248;-0.546;2022-09-30T07:37:07;35.17;31.90;
62631;PMS5003;48703;51.248;-0.546;2022-09-30T07:40:07;36.99;32.99;
62631;PMS5003;48703;51.248;-0.546;2022-09-30T07:43:09;37.58;32.90;
62631;PMS5003;48703;51.248;-0.546;2022-09-30T07:46:12;34.41;30.90;
62631;PMS5003;48703;51.248;-0.546;2022-09-30T07:49:13;37.96;33.72;
62631;PMS5003;48703;51.248;-0.546;2022-09-30T07:52:14;38.25;34.12;
62631;PMS5003;48703;51.248;-0.546;2022-09-30T07:55:15;35.81;33.25;
62631;PMS5003;48703;51.248;-0.546;2022-09-30T07:58:17;37.88;33.70;
62631;PMS5003;48703;51.248;-0.546;2022-09-30T08:01:19;40.01;36.16;
62631;PMS5003;48703;51.248;-0.546;2022-09-30T08:04:20;39.42;34.13;
62631;PMS5003;48703;51.248;-0.546;2022-09-30T08:07:20;42.44;37.19;
62631;PMS5003;48703;51.248;-0.546;2022-09-30T08:10:21;43.82;39.46;
62631;PMS5003;48703;51.248;-0.546;2022-09-30T08:13:23;39.50;36.93;
62631;PMS5003;48703;51.248;-0.546;2022-09-30T08:16:24;44.65;39.58;
62631;PMS5003;48703;51.248;-0.546;2022-09-30T08:19:26;44.25;40.19;
62631;PMS5003;48703;51.248;-0.546;2022-09-30T08:22:27;44.10;39.63;
62631;PMS5003;48703;51.248;-0.546;2022-09-30T08:25:28;42.71;38.99;
62631;PMS5003;48703;51.248;-0.546;2022-09-30T08:28:30;42.26;37.94;
62631;PMS5003;48703;51.248;-0.546;2022-09-30T08:31:31;43.15;40.44;
62631;PMS5003;48703;51.248;-0.546;2022-09-30T08:34:33;41.61;36.72;
62631;PMS5003;48703;51.248;-0.546;2022-09-30T08:37:34;41.83;38.03;
62631;PMS5003;48703;51.248;-0.546;2022-09-30T08:40:36;39.20;35.25;
62631;PMS5003;48703;51.248;-0.546;2022-09-30T08:43:38;39.80;35.11;
62631;PMS5003;48703;51.248;-0.546;2022-09-30T08:46:41;38.71;35.41;
62631;PMS5003;48703;51.248;-0.546;2022-09-30T08:49:44;41.43;35.87;
62631;PMS5003;48703;51.248;-0.546;2022-09-30T08:52:42;38.26;34.58;
62631;PMS5003;48703;51.248;-0.546;2022-09-30T08:55:44;38.00;35.71;
62631;PMS5003;48703;51.248;-0.546;2022-09-30T08:58:44;39.55;35.86;
62631;PMS5003;48703;51.248;-0.546;2022-09-30T09:01:46;39.00;34.75;
62631;PMS5003;48703;51.248;-0.546;2022-09-30T09:04:47;38.70;35.86;
62631;PMS5003;48703;51.248;-0.546;2022-09-30T09:07:50;34.65;31.93;
62631;PMS5003;48703;51.248;-0.546;2022-09-30T09:10:50;34.68;31.04;
62631;PMS5003;48703;51.248;-0.546;2022-09-30T09:13:50;36.69;33.99;
62631;PMS5003;48703;51.248;-0.546;2022-09-30T09:16:55;34.42;32.22;
62631;PMS5003;48703;51.248;-0.546;2022-09-30T09:19:56;33.14;29.83;
62631;PMS5003;48703;51.248;-0.546;2022-09-30T09:22:55;31.54;30.25;
62631;PMS5003;48703;51.248;-0.546;2022-09-30T09:25:56;34.38;29.99;
62631;PMS5003;48703;51.248;-0.546;2022-09-30T09:29:00;30.54;28.86;
62631;PMS5003;48703;51.248;-0.546;2022-09-30T09:32:00;34.32;31.70;
62631;PMS5003;48703;51.248;-0.546;2022-09-30T09:35:03;27.52;26.57;
62631;PMS5003;48703;51.248;-0.546;2022-09-30T09:38:03;32.65;29.54;
62631;PMS5003;48703;51.248;-0.546;2022-09-30T09:41:05;29.71;25.65;
62631;PMS5003;48703;51.248;-0.546;2022-09-30T09:44:05;31.40;28.79;
62631;PMS5003;48703;51.248;-0.546;2022-09-30T09:47:07;27.45;25.83;
62631;PMS5003;48703;51.248;-0.546;2022-09-30T09:50:11;30.07;27.90;
62631;PMS5003;48703;51.248;-0.546;2022-09-30T09:53:13;27.26;25.14;
62631;PMS5003;48703;51.248;-0.546;2022-09-30T09:56:12;31.39;29.25;
62631;PMS5003;48703;51.248;-0.546;2022-09-30T09:59:12;30.99;27.51;
62631;PMS5003;48703;51.248;-0.546;2022-09-30T10:02:20;27.47;24.03;
62631;PMS5003;48703;51.248;-0.546;2022-09-30T10:05:21;28.11;25.44;
62631;PMS5003;48703;51.248;-0.546;2022-09-30T10:08:16;28.96;25.55;
62631;PMS5003;48703;51.248;-0.546;2022-09-30T10:11:17;29.01;27.32;
62631;PMS5003;48703;51.248;-0.546;2022-09-30T10:14:19;27.50;25.03;
62631;PMS5003;48703;51.248;-0.546;2022-09-30T10:17:19;25.40;23.21;
62631;PMS5003;48703;51.248;-0.546;2022-09-30T10:20:23;27.13;23.40;
62631;PMS5003;48703;51.248;-0.546;2022-09-30T10:23:24;26.30;24.11;
62631;PMS5003;48703;51.248;-0.546;2022-09-30T10:26:24;24.97;23.46;
62631;PMS5003;48703;51.248;-0.546;2022-09-30T10:29:25;25.07;22.93;
62631;PMS5003;48703;51.248;-0.546;2022-09-30T10:32:25;26.09;24.26;
62631;PMS5003;48703;51.248;-0.546;2022-09-30T10:35:26;24.66;22.73;
62631;PMS5003;48703;51.248;-0.546;2022-09-30T10:38:27;22.96;22.06;
62631;PMS5003;48703;51.248;-0.546;2022-09-30T10:41:29;20.96;19.36;
62631;PMS5003;48703;51.248;-0.546;2022-09-30T10:44:30;20.37;17.70;
62631;PMS5003;48703;51.248;-0.546;2022-09-30T10:47:31;18.17;15.67;
62631;PMS5003;48703;51.248;-0.546;2022-09-30T10:50:32;18.23;16.86;
62631;PMS5003;48703;51.248;-0.546;2022-09-30T10:53:34;16.17;14.89;
62631;PMS5003;48703;51.248;-0.546;2022-09-30T10:56:38;14.53;13.66;
62631;PMS5003;48703;51.248;-0.546;2022-09-30T10:59:37;13.89;13.13;
62631;PMS5003;48703;51.248;-0.546;2022-09-30T11:02:39;13.33;12.86;
62631;PMS5003;48703;51.248;-0.546;2022-09-30T11:05:40;14.80;12.86;
62631;PMS5003;48703;51.248;-0.546;2022-09-30T11:08:43;12.30;11.99;
62631;PMS5003;48703;51.248;-0.546;2022-09-30T11:11:44;12.74;11.44;
62631;PMS5003;48703;51.248;-0.546;2022-09-30T11:14:45;12.13;11.94;
62631;PMS5003;48703;51.248;-0.546;2022-09-30T11:17:48;12.33;11.61;
62631;PMS5003;48703;51.248;-0.546;2022-09-30T11:20:49;12.40;9.59;
62631;PMS5003;48703;51.248;-0.546;2022-09-30T11:23:49;10.26;9.91;
62631;PMS5003;48703;51.248;-0.546;2022-09-30T11:26:52;10.00;9.74;
62631;PMS5003;48703;51.248;-0.546;2022-09-30T11:29:56;11.42;10.88;
62631;PMS5003;48703;51.248;-0.546;2022-09-30T11:32:58;9.47;9.09;
62631;PMS5003;48703;51.248;-0.546;2022-09-30T11:35:58;11.30;9.46;
62631;PMS5003;48703;51.248;-0.546;2022-09-30T11:39:00;11.14;9.93;
62631;PMS5003;48703;51.248;-0.546;2022-09-30T11:42:00;10.17;9.46;
62631;PMS5003;48703;51.248;-0.546;2022-09-30T11:45:02;10.76;9.26;
62631;PMS5003;48703;51.248;-0.546;2022-09-30T11:48:07;9.53;8.19;
62631;PMS5003;48703;51.248;-0.546;2022-09-30T11:51:06;9.71;8.26;
62631;PMS5003;48703;51.248;-0.546;2022-09-30T11:54:09;9.90;8.81;
62631;PMS5003;48703;51.248;-0.546;2022-09-30T11:57:08;7.29;6.77;
62631;PMS5003;48703;51.248;-0.546;2022-09-30T12:00:12;7.43;6.96;
62631;PMS5003;48703;51.248;-0.546;2022-09-30T12:03:11;8.26;7.79;
62631;PMS5003;48703;51.248;-0.546;2022-09-30T12:06:13;7.21;6.40;
62631;PMS5003;48703;51.248;-0.546;2022-09-30T12:09:14;7.76;7.49;
62631;PMS5003;48703;51.248;-0.546;2022-09-30T12:12:15;7.11;6.97;
62631;PMS5003;48703;51.248;-0.546;2022-09-30T12:15:16;8.33;7.93;
62631;PMS5003;48703;51.248;-0.546;2022-09-30T12:18:18;7.16;6.09;
62631;PMS5003;48703;51.248;-0.546;2022-09-30T12:21:20;8.40;7.50;
62631;PMS5003;48703;51.248;-0.546;2022-09-30T12:24:22;9.80;8.17;
62631;PMS5003;48703;51.248;-0.546;2022-09-30T12:27:22;7.20;7.16;
62631;PMS5003;48703;51.248;-0.546;2022-09-30T12:30:23;8.20;7.77;
62631;PMS5003;48703;51.248;-0.546;2022-09-30T12:33:28;7.97;7.46;
62631;PMS5003;48703;51.248;-0.546;2022-09-30T12:36:35;6.94;6.94;
62631;PMS5003;48703;51.248;-0.546;2022-09-30T12:41:44;8.09;6.91;
62631;PMS5003;48703;51.248;-0.546;2022-09-30T12:42:34;7.87;6.13;
62631;PMS5003;48703;51.248;-0.546;2022-09-30T12:45:42;7.64;7.60;
62631;PMS5003;48703;51.248;-0.546;2022-09-30T12:48:33;8.59;7.81;
62631;PMS5003;48703;51.248;-0.546;2022-09-30T12:51:34;7.51;7.09;
62631;PMS5003;48703;51.248;-0.546;2022-09-30T12:54:37;7.34;7.09;
62631;PMS5003;48703;51.248;-0.546;2022-09-30T12:57:37;7.84;7.76;
62631;PMS5003;48703;51.248;-0.546;2022-09-30T13:00:38;9.67;8.29;
62631;PMS5003;48703;51.248;-0.546;2022-09-30T13:03:42;8.59;6.60;
62631;PMS5003;48703;51.248;-0.546;2022-09-30T13:08:07;6.99;6.50;
62631;PMS5003;48703;51.248;-0.546;2022-09-30T13:10:00;7.14;7.14;
62631;PMS5003;48703;51.248;-0.546;2022-09-30T13:12:44;6.24;6.24;
62631;PMS5003;48703;51.248;-0.546;2022-09-30T13:15:46;7.26;6.43;
62631;PMS5003;48703;51.248;-0.546;2022-09-30T13:19:31;7.57;7.57;
62631;PMS5003;48703;51.248;-0.546;2022-09-30T13:21:49;7.96;7.16;
62631;PMS5003;48703;51.248;-0.546;2022-09-30T13:25:02;8.66;7.97;
62631;PMS5003;48703;51.248;-0.546;2022-09-30T13:27:53;7.40;6.53;
62631;PMS5003;48703;51.248;-0.546;2022-09-30T13:31:10;7.47;6.14;
62631;PMS5003;48703;51.248;-0.546;2022-09-30T13:34:04;6.50;6.10;
62631;PMS5003;48703;51.248;-0.546;2022-09-30T13:36:57;7.94;7.75;
62631;PMS5003;48703;51.248;-0.546;2022-09-30T13:39:58;6.53;5.41;
62631;PMS5003;48703;51.248;-0.546;2022-09-30T13:42:59;6.99;6.86;
62631;PMS5003;48703;51.248;-0.546;2022-09-30T13:46:03;5.57;5.57;
62631;PMS5003;48703;51.248;-0.546;2022-09-30T13:49:03;7.71;6.94;
62631;PMS5003;48703;51.248;-0.546;2022-09-30T13:52:05;6.79;6.79;
62631;PMS5003;48703;51.248;-0.546;2022-09-30T13:55:07;8.27;7.04;
62631;PMS5003;48703;51.248;-0.546;2022-09-30T13:58:11;6.70;6.67;
62631;PMS5003;48703;51.248;-0.546;2022-09-30T14:01:11;7.79;7.36;
62631;PMS5003;48703;51.248;-0.546;2022-09-30T14:04:16;7.86;7.70;
62631;PMS5003;48703;51.248;-0.546;2022-09-30T14:07:14;6.19;5.73;
62631;PMS5003;48703;51.248;-0.546;2022-09-30T14:10:18;6.76;6.76;
62631;PMS5003;48703;51.248;-0.546;2022-09-30T14:13:20;6.37;6.37;
62631;PMS5003;48703;51.248;-0.546;2022-09-30T14:16:24;5.94;5.94;
62631;PMS5003;48703;51.248;-0.546;2022-09-30T14:19:22;7.34;6.60;
62631;PMS5003;48703;51.248;-0.546;2022-09-30T14:22:20;5.81;5.69;
62631;PMS5003;48703;51.248;-0.546;2022-09-30T14:25:21;5.04;4.99;
62631;PMS5003;48703;51.248;-0.546;2022-09-30T14:28:25;6.94;6.50;
62631;PMS5003;48703;51.248;-0.546;2022-09-30T14:31:24;5.94;5.80;
62631;PMS5003;48703;51.248;-0.546;2022-09-30T14:34:26;6.46;6.36;
62631;PMS5003;48703;51.248;-0.546;2022-09-30T14:37:28;6.90;6.30;
62631;PMS5003;48703;51.248;-0.546;2022-09-30T14:40:30;6.84;5.73;
62631;PMS5003;48703;51.248;-0.546;2022-09-30T14:43:30;6.31;5.83;
62631;PMS5003;48703;51.248;-0.546;2022-09-30T14:46:32;6.84;6.41;
62631;PMS5003;48703;51.248;-0.546;2022-09-30T14:49:33;6.26;5.47;
62631;PMS5003;48703;51.248;-0.546;2022-09-30T14:52:37;6.33;5.99;
62631;PMS5003;48703;51.248;-0.546;2022-09-30T14:55:37;8.80;6.40;
62631;PMS5003;48703;51.248;-0.546;2022-09-30T14:58:39;5.84;5.59;
62631;PMS5003;48703;51.248;-0.546;2022-09-30T15:01:40;5.77;5.56;
62631;PMS5003;48703;51.248;-0.546;2022-09-30T15:04:43;4.60;4.46;
62631;PMS5003;48703;51.248;-0.546;2022-09-30T15:07:43;5.97;4.93;
62631;PMS5003;48703;51.248;-0.546;2022-09-30T15:10:45;5.17;4.91;
62631;PMS5003;48703;51.248;-0.546;2022-09-30T15:13:46;4.84;4.59;
62631;PMS5003;48703;51.248;-0.546;2022-09-30T15:16:48;3.69;3.63;
62631;PMS5003;48703;51.248;-0.546;2022-09-30T15:19:49;4.00;4.00;
62631;PMS5003;48703;51.248;-0.546;2022-09-30T15:22:51;5.07;4.43;
62631;PMS5003;48703;51.248;-0.546;2022-09-30T15:25:52;3.50;3.44;
62631;PMS5003;48703;51.248;-0.546;2022-09-30T15:28:54;4.89;4.11;
62631;PMS5003;48703;51.248;-0.546;2022-09-30T15:31:57;3.83;3.51;
62631;PMS5003;48703;51.248;-0.546;2022-09-30T15:34:57;4.07;3.69;
62631;PMS5003;48703;51.248;-0.546;2022-09-30T15:38:06;5.96;4.83;
62631;PMS5003;48703;51.248;-0.546;2022-09-30T15:41:01;5.48;4.26;
62631;PMS5003;48703;51.248;-0.546;2022-09-30T15:44:01;4.27;3.43;
62631;PMS5003;48703;51.248;-0.546;2022-09-30T15:47:07;2.44;2.44;
62631;PMS5003;48703;51.248;-0.546;2022-09-30T15:50:04;3.27;3.27;
62631;PMS5003;48703;51.248;-0.546;2022-09-30T15:53:12;4.46;3.47;
62631;PMS5003;48703;51.248;-0.546;2022-09-30T15:56:14;4.09;3.43;
62631;PMS5003;48703;51.248;-0.546;2022-09-30T15:59:09;4.24;2.99;
62631;PMS5003;48703;51.248;-0.546;2022-09-30T16:02:10;4.13;3.87;
62631;PMS5003;48703;51.248;-0.546;2022-09-30T16:05:12;4.26;3.19;
62631;PMS5003;48703;51.248;-0.546;2022-09-30T16:08:14;4.16;3.43;
62631;PMS5003;48703;51.248;-0.546;2022-09-30T16:11:16;4.01;3.34;
62631;PMS5003;48703;51.248;-0.546;2022-09-30T16:14:17;4.11;3.06;
62631;PMS5003;48703;51.248;-0.546;2022-09-30T16:17:18;4.26;3.83;
62631;PMS5003;48703;51.248;-0.546;2022-09-30T16:20:20;4.31;2.93;
62631;PMS5003;48703;51.248;-0.546;2022-09-30T16:23:26;3.50;3.41;
62631;PMS5003;48703;51.248;-0.546;2022-09-30T16:26:26;2.74;2.17;
62631;PMS5003;48703;51.248;-0.546;2022-09-30T16:29:25;2.09;2.09;
62631;PMS5003;48703;51.248;-0.546;2022-09-30T16:32:26;3.10;2.87;
62631;PMS5003;48703;51.248;-0.546;2022-09-30T16:35:27;3.33;2.61;
62631;PMS5003;48703;51.248;-0.546;2022-09-30T16:38:29;4.36;3.71;
62631;PMS5003;48703;51.248;-0.546;2022-09-30T16:41:30;3.56;2.26;
62631;PMS5003;48703;51.248;-0.546;2022-09-30T16:44:32;4.46;3.11;
62631;PMS5003;48703;51.248;-0.546;2022-09-30T16:47:33;2.69;2.27;
62631;PMS5003;48703;51.248;-0.546;2022-09-30T16:50:37;3.13;1.84;
62631;PMS5003;48703;51.248;-0.546;2022-09-30T16:53:37;2.73;2.26;
62631;PMS5003;48703;51.248;-0.546;2022-09-30T16:56:38;2.34;2.14;
62631;PMS5003;48703;51.248;-0.546;2022-09-30T16:59:40;2.39;2.39;
62631;PMS5003;48703;51.248;-0.546;2022-09-30T17:02:41;1.43;1.27;
62631;PMS5003;48703;51.248;-0.546;2022-09-30T17:05:44;2.16;1.77;
62631;PMS5003;48703;51.248;-0.546;2022-09-30T17:08:47;2.59;1.20;
62631;PMS5003;48703;51.248;-0.546;2022-09-30T17:11:46;1.47;1.27;
62631;PMS5003;48703;51.248;-0.546;2022-09-30T17:14:47;2.57;2.50;
62631;PMS5003;48703;51.248;-0.546;2022-09-30T17:17:49;1.90;1.90;
62631;PMS5003;48703;51.248;-0.546;2022-09-30T17:20:50;1.37;1.37;
62631;PMS5003;48703;51.248;-0.546;2022-09-30T17:23:52;3.56;2.06;
62631;PMS5003;48703;51.248;-0.546;2022-09-30T17:26:53;3.86;2.14;
62631;PMS5003;48703;51.248;-0.546;2022-09-30T17:29:55;2.90;2.64;
62631;PMS5003;48703;51.248;-0.546;2022-09-30T17:32:57;1.73;1.73;
62631;PMS5003;48703;51.248;-0.546;2022-09-30T17:35:58;3.07;2.60;
62631;PMS5003;48703;51.248;-0.546;2022-09-30T17:39:00;2.11;1.66;
62631;PMS5003;48703;51.248;-0.546;2022-09-30T17:42:01;2.13;1.23;
62631;PMS5003;48703;51.248;-0.546;2022-09-30T17:45:03;2.13;1.70;
62631;PMS5003;48703;51.248;-0.546;2022-09-30T17:48:04;1.97;1.39;
62631;PMS5003;48703;51.248;-0.546;2022-09-30T17:51:06;1.53;1.14;
62631;PMS5003;48703;51.248;-0.546;2022-09-30T17:54:07;1.64;1.64;
62631;PMS5003;48703;51.248;-0.546;2022-09-30T17:57:09;1.34;1.17;
62631;PMS5003;48703;51.248;-0.546;2022-09-30T18:00:11;2.30;1.44;
62631;PMS5003;48703;51.248;-0.546;2022-09-30T18:03:12;2.09;1.19;
62631;PMS5003;48703;51.248;-0.546;2022-09-30T18:06:14;0.51;0.51;
62631;PMS5003;48703;51.248;-0.546;2022-09-30T18:09:15;0.73;0.73;
62631;PMS5003;48703;51.248;-0.546;2022-09-30T18:12:17;0.93;0.90;